Flight Briefing for CPX253

Departure Arrival
Fort Worth Alliance Airport (KAFW)
Click to view FAA NOTAMS
Chicago/Rockford International Airport (KRFD)
Click to view FAA NOTAMS
Departure Time Arrival Time
N/A N/A
Aircraft Distance
B767-300BDSF 676nm
Departure METAR Arrival METAR
KAFW 271053Z 18015KT 9SM SCT023 SCT190 BKN300 23/19 A2991 RMK AO2 SLP114 T02330189 KRFD 271054Z 09007KT 10SM BKN220 13/09 A3002 RMK AO2 SLP161 T01330089 $
Suggested Route
TEX5 OKM J181 BAYLI J105 BDF


View recent IFR Routes data
Notes



Charts and Procedures

Charts for KAFW
No chart available
Charts for KRFD
No chart available

Windy.com Weather Map